Atlas, Illinois
Current Conditions -  °F | °C
As of 3:35 AM on Saturday 29 Nov 2014 (Local Time) from KPPQ Reporting Station
Clear Clear  
Wind Chill: 37°   Ceiling: Unl
Heat Index: 42°   Visibility: 10mi
Dew Point: 35°   Wind: 9mph
Humidity: 77%   Direction: 170°S
Pressure: 29.76"   Gusts: NA
Location:  39.5365°N, 91.0118°W
Report Text: KPPQ 290935Z AUTO 17008KT 10SM CLR 06/02 A2976 RMK AO2 T00560018 PWINO
Loading
Personal Weather Stations






























Interactive Weather Map New forecast layout! Learn more

10-Day Weather Forecast

Advertisements
Track Severe Weather on mobile